Time;durP1;ratioP1;P1;durP2;ratioP2;P2;SDS_P1;SDS_P2;PMS_P1;PMS_P2;Temp;Humidity;BMP_temperature;BMP_pressure;BME280_temperature;BME280_humidity;BME280_pressure;Samples;Min_cycle;Max_cycle;Signal;HPM_P1;HPM_P2
2021/06/05 00:00:24;;;;;;;17.00;15.23;;;;;;;22.81;59.49;101846.13;5032773;28;124252;-63
2021/06/05 00:02:51;;;;;;;19.63;15.70;;;;;;;22.81;59.49;101846.13;5024474;28;123920;-64
2021/06/05 00:05:21;;;;;;;18.15;16.25;;;;;;;22.80;59.42;101838.97;5034984;27;108205;-63
2021/06/05 00:07:48;;;;;;;17.27;15.45;;;;;;;22.80;59.47;101836.28;5033413;28;109995;-64
2021/06/05 00:10:21;;;;;;;17.52;15.18;;;;;;;22.80;59.53;101843.53;5027303;28;124589;-64
2021/06/05 00:12:48;;;;;;;18.02;15.48;;;;;;;22.79;59.58;101839.09;5034463;27;123541;-64
2021/06/05 00:15:26;;;;;;;18.35;15.50;;;;;;;22.77;59.51;101832.97;5024995;28;110173;-64
2021/06/05 00:17:53;;;;;;;17.70;15.52;;;;;;;22.78;59.56;101829.28;5032838;28;108703;-64
2021/06/05 00:20:22;;;;;;;19.05;16.30;;;;;;;22.77;59.79;101832.97;5032345;28;124006;-64
2021/06/05 00:22:50;;;;;;;20.00;17.90;;;;;;;22.77;60.08;101841.06;5032846;28;123938;-64
2021/06/05 00:25:17;;;;;;;22.05;19.73;;;;;;;22.74;59.98;101834.94;5030132;28;109399;-64
2021/06/05 00:27:44;;;;;;;21.10;18.83;;;;;;;22.73;59.87;101838.63;5030455;28;110813;-64
2021/06/05 00:30:11;;;;;;;19.40;17.45;;;;;;;22.74;59.86;101832.22;5026370;28;123324;-63
2021/06/05 00:32:38;;;;;;;19.50;17.40;;;;;;;22.73;59.76;101838.63;5029427;28;123618;-63
2021/06/05 00:35:06;;;;;;;20.83;18.63;;;;;;;22.72;59.81;101841.47;5031423;28;109146;-64
2021/06/05 00:37:33;;;;;;;19.45;17.52;;;;;;;22.70;59.73;101841.56;5026101;28;110092;-64
2021/06/05 00:40:00;;;;;;;19.73;17.73;;;;;;;22.67;59.73;101833.72;5031103;27;123266;-64
2021/06/05 00:42:27;;;;;;;20.67;18.48;;;;;;;22.64;59.75;101831.28;5033132;28;123954;-63
2021/06/05 00:44:55;;;;;;;19.00;17.17;;;;;;;22.63;59.66;101832.25;5032626;27;108157;-63
2021/06/05 00:47:22;;;;;;;20.02;18.02;;;;;;;22.61;59.56;101841.47;5012753;28;109186;-63
2021/06/05 00:49:50;;;;;;;20.38;18.30;;;;;;;22.58;59.56;101845.25;5064121;22;124879;-68
2021/06/05 00:52:22;;;;;;;21.73;19.55;;;;;;;22.56;59.70;101847.22;5051844;27;123789;-69
2021/06/05 00:54:57;;;;;;;19.38;17.42;;;;;;;22.52;59.64;101843.03;5041078;27;109962;-69
2021/06/05 00:57:26;;;;;;;20.58;18.38;;;;;;;22.48;59.80;101839.72;5049845;27;110038;-69
2021/06/05 00:59:56;;;;;;;20.75;18.55;;;;;;;22.45;60.11;101834.59;5051280;27;123348;-69
2021/06/05 01:02:24;;;;;;;21.83;19.65;;;;;;;22.44;60.01;101837.41;5048379;27;123222;-69
2021/06/05 01:04:52;;;;;;;20.02;17.92;;;;;;;22.43;60.01;101846.47;5052092;27;109548;-69
2021/06/05 01:07:27;;;;;;;23.73;21.25;;;;;;;22.40;60.30;101849.44;5050531;27;110569;-70
2021/06/05 01:10:00;;;;;;;24.60;20.38;;;;;;;22.38;60.25;101848.66;5047660;27;123935;-69
2021/06/05 01:13:06;;;;;;;23.38;19.98;;;;;;;22.37;60.24;101841.56;5047381;27;123349;-69
2021/06/05 01:15:56;;;;;;;21.85;19.50;;;;;;;22.34;59.92;101843.53;5046316;27;109382;-70
2021/06/05 01:18:36;;;;;;;22.23;19.13;;;;;;;22.32;59.94;101845.50;5047042;27;110708;-70
2021/06/05 01:21:25;;;;;;;23.98;21.05;;;;;;;22.29;60.04;101848.44;5050171;27;124285;-69
2021/06/05 01:24:18;;;;;;;22.05;19.75;;;;;;;22.27;60.34;101845.00;5043544;27;123901;-69
2021/06/05 01:27:01;;;;;;;21.93;19.63;;;;;;;22.26;60.15;101851.34;5042645;27;108328;-70
2021/06/05 01:29:33;;;;;;;23.10;20.58;;;;;;;22.26;60.37;101845.97;5046048;27;109290;-68
2021/06/05 01:32:05;;;;;;;22.98;20.67;;;;;;;22.25;60.29;101844.25;5038299;27;123224;-68
2021/06/05 01:34:58;;;;;;;21.85;19.63;;;;;;;22.23;60.17;101840.78;5023885;27;123029;-69
2021/06/05 01:37:28;;;;;;;22.38;19.92;;;;;;;22.25;60.45;101843.38;5058150;27;108163;-69
2021/06/05 01:40:05;;;;;;;20.45;18.30;;;;;;;22.24;60.29;101839.78;5039838;27;109005;-71
2021/06/05 01:42:35;;;;;;;22.58;20.27;;;;;;;22.23;60.39;101845.34;5045543;27;124618;-70
2021/06/05 01:45:07;;;;;;;22.70;20.35;;;;;;;22.22;60.41;101839.06;5047402;27;122989;-70
2021/06/05 01:47:36;;;;;;;19.77;17.77;;;;;;;22.21;60.31;101837.34;5047539;27;109475;-70
2021/06/05 01:50:08;;;;;;;22.77;20.40;;;;;;;22.20;60.31;101841.03;5048743;27;110186;-71
2021/06/05 01:52:40;;;;;;;22.40;19.55;;;;;;;22.18;60.27;101832.19;5031405;27;123919;-69
2021/06/05 01:55:20;;;;;;;22.25;20.00;;;;;;;22.18;60.43;101837.59;5045876;27;122400;-69
2021/06/05 01:57:59;;;;;;;24.42;21.40;;;;;;;22.16;60.53;101834.16;5063374;27;109657;-69
2021/06/05 02:00:44;;;;;;;22.77;20.35;;;;;;;22.15;60.41;101827.03;5047884;27;108440;-69
2021/06/05 02:03:14;;;;;;;26.30;22.35;;;;;;;22.14;60.62;101830.72;5044406;27;123531;-69
2021/06/05 02:05:49;;;;;;;25.00;22.40;;;;;;;22.13;60.69;101824.47;5039066;27;122869;-69
2021/06/05 02:08:21;;;;;;;24.38;21.77;;;;;;;22.11;60.80;101831.84;5049837;27;109442;-69
2021/06/05 02:10:49;;;;;;;23.15;20.65;;;;;;;22.12;60.75;101829.97;5034322;27;109068;-69
2021/06/05 02:13:24;;;;;;;23.00;20.67;;;;;;;22.11;60.75;101836.34;5046946;27;123378;-69
2021/06/05 02:16:11;;;;;;;23.05;20.70;;;;;;;22.10;60.65;101830.09;5046689;27;123915;-69
2021/06/05 02:18:42;;;;;;;23.45;20.27;;;;;;;22.10;60.85;101823.84;5036851;27;107654;-69
2021/06/05 02:21:19;;;;;;;23.13;19.40;;;;;;;22.10;60.50;101818.44;5048955;27;110539;-68
2021/06/05 02:23:55;;;;;;;22.65;19.10;;;;;;;22.09;60.64;101816.72;5036939;27;123162;-69
2021/06/05 02:26:23;;;;;;;21.88;19.58;;;;;;;22.06;60.53;101827.78;5041351;27;123546;-68
2021/06/05 02:29:05;;;;;;;23.70;21.17;;;;;;;22.05;60.66;101826.03;5039452;27;107412;-68
2021/06/05 02:31:32;;;;;;;24.80;22.27;;;;;;;22.03;60.77;101822.59;5047713;27;109282;-68
2021/06/05 02:34:02;;;;;;;24.00;21.02;;;;;;;22.01;60.96;101830.81;5050180;27;123588;-68
2021/06/05 02:36:29;;;;;;;25.38;21.60;;;;;;;22.00;60.83;101828.22;5030555;27;124911;-69
2021/06/05 02:38:57;;;;;;;27.58;24.65;;;;;;;21.99;61.03;101829.22;5045025;27;108458;-68
2021/06/05 02:41:28;;;;;;;26.40;23.65;;;;;;;21.98;60.97;101820.25;5052609;27;110036;-69
2021/06/05 02:43:55;;;;;;;24.27;21.50;;;;;;;21.97;60.92;101819.41;5048891;27;124153;-68
2021/06/05 02:46:33;;;;;;;22.85;20.38;;;;;;;21.95;60.82;101815.97;5047927;27;123064;-68
2021/06/05 02:49:07;;;;;;;22.67;19.98;;;;;;;21.93;60.90;101817.94;5033835;27;110491;-68
2021/06/05 02:51:41;;;;;;;23.17;20.27;;;;;;;21.91;60.86;101819.88;5045519;27;109435;-69
2021/06/05 02:54:18;;;;;;;23.55;20.73;;;;;;;21.90;60.83;101834.34;5034497;27;122591;-69
2021/06/05 02:56:48;;;;;;;21.52;19.33;;;;;;;21.89;60.88;101832.63;5037981;27;123885;-68
2021/06/05 02:59:15;;;;;;;23.10;19.55;;;;;;;21.87;61.02;101840.00;5046867;27;109829;-68
2021/06/05 03:01:49;;;;;;;21.60;19.30;;;;;;;21.87;61.05;101834.59;5041998;27;110100;-68
2021/06/05 03:04:17;;;;;;;21.95;19.75;;;;;;;21.87;61.04;101840.00;5040949;27;123484;-68
2021/06/05 03:06:46;;;;;;;23.65;20.00;;;;;;;21.89;60.98;101838.03;5049967;27;124569;-68
2021/06/05 03:09:16;;;;;;;22.92;20.65;;;;;;;21.88;61.20;101825.50;5039700;27;108798;-68
2021/06/05 03:11:45;;;;;;;24.95;21.23;;;;;;;21.88;61.38;101835.44;5045844;27;110438;-68
2021/06/05 03:14:14;;;;;;;23.17;20.77;;;;;;;21.86;61.44;101840.94;5045338;27;123173;-68
2021/06/05 03:16:42;;;;;;;23.35;20.80;;;;;;;21.85;61.62;101836.56;5046097;27;123591;-69
2021/06/05 03:19:10;;;;;;;23.48;21.05;;;;;;;21.85;61.73;101836.56;5044026;27;109300;-69
2021/06/05 03:21:40;;;;;;;24.65;21.05;;;;;;;21.85;61.66;101825.75;5042355;27;109932;-68
2021/06/05 03:24:17;;;;;;;23.58;20.60;;;;;;;21.87;61.73;101822.91;5044451;27;124252;-68
2021/06/05 03:26:44;;;;;;;24.17;21.67;;;;;;;21.87;61.70;101818.41;5037966;27;123125;-68
2021/06/05 03:29:14;;;;;;;22.63;20.38;;;;;;;21.89;61.77;101821.00;5049566;27;108672;-69
2021/06/05 03:31:51;;;;;;;24.00;21.60;;;;;;;21.91;61.78;101822.59;5048532;27;109692;-68
2021/06/05 03:34:18;;;;;;;29.73;23.92;;;;;;;21.92;61.89;101816.19;5039328;27;124763;-69
2021/06/05 03:36:46;;;;;;;30.95;26.95;;;;;;;21.91;61.82;101814.50;5044785;27;123349;-68
2021/06/05 03:39:16;;;;;;;28.77;25.80;;;;;;;21.87;61.87;101813.00;5048592;27;109961;-68
2021/06/05 03:41:44;;;;;;;27.77;24.90;;;;;;;21.86;61.90;101813.97;5050377;27;109827;-68
2021/06/05 03:44:13;;;;;;;30.52;23.85;;;;;;;21.86;61.96;101811.28;5040075;27;124345;-69
2021/06/05 03:46:41;;;;;;;29.35;24.90;;;;;;;21.86;62.16;101811.28;5048285;27;123330;-68
2021/06/05 03:49:09;;;;;;;28.23;25.35;;;;;;;21.85;62.22;101814.97;5049175;27;107214;-69
2021/06/05 03:51:37;;;;;;;28.95;24.63;;;;;;;21.85;62.22;101804.19;5051182;27;110603;-68
2021/06/05 03:54:07;;;;;;;27.80;24.05;;;;;;;21.85;62.40;101806.88;5053233;27;123216;-69
2021/06/05 03:56:35;;;;;;;26.08;23.30;;;;;;;21.85;62.25;101812.28;5051883;27;124201;-68
2021/06/05 03:59:03;;;;;;;27.65;24.65;;;;;;;21.87;62.39;101807.63;5050919;27;109258;-68
2021/06/05 04:01:31;;;;;;;27.25;23.35;;;;;;;21.88;62.31;101803.94;5052223;27;109667;-68
2021/06/05 04:03:58;;;;;;;28.13;25.15;;;;;;;21.90;62.27;101812.75;5041592;27;122982;-68
2021/06/05 04:06:27;;;;;;;30.30;25.55;;;;;;;21.90;62.47;101801.97;5041017;27;124304;-69
2021/06/05 04:08:55;;;;;;;29.23;25.27;;;;;;;21.91;62.43;101809.09;5043306;27;109413;-69
2021/06/05 04:11:22;;;;;;;29.30;26.08;;;;;;;21.93;62.45;101806.28;5049213;27;110132;-69
2021/06/05 04:13:49;;;;;;;31.17;27.20;;;;;;;21.93;62.31;101800.88;5041897;27;123423;-70
2021/06/05 04:16:17;;;;;;;29.70;26.60;;;;;;;21.94;62.45;101810.69;5049944;27;123702;-67
2021/06/05 04:18:45;;;;;;;31.58;28.20;;;;;;;21.94;62.50;101814.25;5047802;27;109041;-69
2021/06/05 04:21:16;;;;;;;30.33;26.42;;;;;;;21.95;62.59;101805.19;5047154;27;110321;-68
2021/06/05 04:23:43;;;;;;;35.75;28.90;;;;;;;21.97;62.55;101805.91;5046302;27;124363;-68
2021/06/05 04:26:10;;;;;;;29.10;25.90;;;;;;;21.99;62.61;101805.78;5038206;27;123900;-69
2021/06/05 04:28:38;;;;;;;30.98;27.58;;;;;;;22.00;62.38;101806.66;5046987;27;109836;-69
2021/06/05 04:31:06;;;;;;;34.22;29.17;;;;;;;22.01;62.81;101819.16;5021709;27;109139;-69
2021/06/05 04:33:33;;;;;;;34.72;29.30;;;;;;;22.02;62.53;101820.88;5049610;27;124131;-69
2021/06/05 04:36:05;;;;;;;41.88;32.58;;;;;;;22.02;62.74;101810.09;5042463;27;124097;-69
2021/06/05 04:38:36;;;;;;;43.03;34.60;;;;;;;22.05;62.64;101817.94;5050875;27;108705;-69
2021/06/05 04:41:04;;;;;;;44.45;35.10;;;;;;;22.06;62.82;101812.44;5044900;27;109432;-68
2021/06/05 04:43:31;;;;;;;47.13;36.92;;;;;;;22.06;62.90;101816.97;5048865;27;123436;-68
2021/06/05 04:45:59;;;;;;;54.13;38.88;;;;;;;22.03;62.85;101812.66;5043746;27;123098;-69
2021/06/05 04:48:27;;;;;;;48.42;39.38;;;;;;;22.00;63.04;101809.34;5039557;27;109380;-69
2021/06/05 04:50:54;;;;;;;54.38;43.95;;;;;;;21.97;63.09;101819.41;5051449;27;112906;-69
2021/06/05 04:53:23;;;;;;;84.93;67.90;;;;;;;21.95;63.13;101815.13;5047836;27;124426;-69
2021/06/05 04:55:53;;;;;;;97.30;74.65;;;;;;;21.91;62.91;101817.19;5053384;27;123327;-69
2021/06/05 04:58:20;;;;;;;98.30;76.82;;;;;;;21.87;63.13;101817.53;5051830;27;109403;-69
2021/06/05 05:00:50;;;;;;;98.70;76.15;;;;;;;21.83;62.96;101822.31;5050937;27;110001;-68
2021/06/05 05:03:20;;;;;;;103.90;79.65;;;;;;;21.81;63.19;101824.25;5048341;27;124329;-69
2021/06/05 05:05:48;;;;;;;107.75;81.07;;;;;;;21.80;63.12;101827.94;5047233;27;123477;-69
2021/06/05 05:08:17;;;;;;;101.75;80.38;;;;;;;21.81;63.20;101824.25;5043480;27;114194;-69
2021/06/05 05:10:47;;;;;;;108.03;81.20;;;;;;;21.84;63.21;101829.44;5047029;27;114146;-68
2021/06/05 05:13:24;;;;;;;110.75;83.43;;;;;;;21.85;63.18;101825.75;5045321;27;123876;-69
2021/06/05 05:15:52;;;;;;;111.97;83.15;;;;;;;21.86;62.99;101837.41;5042314;27;123125;-69
2021/06/05 05:18:21;;;;;;;115.40;82.88;;;;;;;21.85;62.90;101836.56;5046125;27;114823;-69
2021/06/05 05:20:48;;;;;;;116.82;86.30;;;;;;;21.82;63.05;101836.78;5045158;27;114679;-69
2021/06/05 05:23:16;;;;;;;118.20;85.30;;;;;;;21.79;63.05;101842.41;5048050;27;124150;-69
2021/06/05 05:25:44;;;;;;;118.30;84.95;;;;;;;21.77;63.02;101841.66;5040610;27;123467;-69
2021/06/05 05:28:15;;;;;;;122.32;86.80;;;;;;;21.74;62.98;101833.81;5042801;27;114126;-69
2021/06/05 05:30:51;;;;;;;123.15;86.25;;;;;;;21.70;63.02;101830.50;5048472;27;114144;-69
2021/06/05 05:33:21;;;;;;;114.90;82.18;;;;;;;21.68;63.00;101839.66;5044496;27;124509;-69
2021/06/05 05:35:49;;;;;;;122.55;85.13;;;;;;;21.68;63.15;101839.66;5048417;27;124182;-69
2021/06/05 05:38:17;;;;;;;111.75;83.47;;;;;;;21.67;63.11;101843.34;5037882;27;113711;-69
2021/06/05 05:40:44;;;;;;;117.45;83.68;;;;;;;21.64;63.28;101848.97;5045937;27;114375;-69
2021/06/05 05:43:13;;;;;;;117.13;83.22;;;;;;;21.61;63.12;101844.69;5043535;27;124696;-69
2021/06/05 05:45:41;;;;;;;117.82;82.75;;;;;;;21.60;63.20;101844.78;5046642;27;124234;-70
2021/06/05 05:48:11;;;;;;;122.75;82.80;;;;;;;21.57;63.32;101849.44;5045629;27;113191;-69
2021/06/05 05:50:41;;;;;;;113.57;81.07;;;;;;;21.57;63.50;101854.84;5040291;27;113969;-69
2021/06/05 05:53:08;;;;;;;122.88;82.78;;;;;;;21.55;63.59;101861.31;5044266;27;124062;-69
2021/06/05 05:55:35;;;;;;;113.13;79.43;;;;;;;21.53;63.52;101858.75;5044027;27;123631;-69
2021/06/05 05:58:05;;;;;;;117.43;81.57;;;;;;;21.54;63.66;101860.44;5046085;27;113471;-69
2021/06/05 06:00:35;;;;;;;120.13;81.65;;;;;;;21.55;63.52;101866.72;5043081;27;114154;-69
2021/06/05 06:03:03;;;;;;;110.63;78.75;;;;;;;21.58;63.69;101870.00;5042728;27;123579;-69
2021/06/05 06:05:32;;;;;;;108.78;76.47;;;;;;;21.63;63.56;101868.84;5027303;27;123219;-69
2021/06/05 06:08:00;;;;;;;109.47;77.53;;;;;;;21.64;63.60;101873.22;5047484;27;114913;-69
2021/06/05 06:10:27;;;;;;;104.40;74.82;;;;;;;21.64;63.53;101870.53;5045059;27;114808;-70
2021/06/05 06:12:55;;;;;;;106.38;77.82;;;;;;;21.66;63.58;101868.56;5045241;27;123948;-70
2021/06/05 06:15:26;;;;;;;105.28;77.82;;;;;;;21.65;63.50;101874.97;5050495;27;124615;-69
2021/06/05 06:17:54;;;;;;;109.60;76.38;;;;;;;21.67;63.36;101881.09;5033587;27;115463;-69
2021/06/05 06:20:32;;;;;;;106.68;78.00;;;;;;;21.68;63.50;101878.28;5044972;27;114046;-69
2021/06/05 06:22:59;;;;;;;105.88;76.47;;;;;;;21.72;63.52;101889.72;5043895;27;124636;-70
2021/06/05 06:25:30;;;;;;;113.53;78.47;;;;;;;21.74;63.47;101887.75;5043668;27;124634;-70
2021/06/05 06:27:57;;;;;;;122.32;78.55;;;;;;;21.77;63.51;101892.88;5040836;27;113433;-69
2021/06/05 06:30:33;;;;;;;124.00;80.35;;;;;;;21.77;63.31;101890.19;5047023;27;113632;-70
2021/06/05 06:33:02;;;;;;;127.30;81.20;;;;;;;21.77;63.25;101892.88;5046903;27;124020;-69
2021/06/05 06:35:31;;;;;;;132.52;81.95;;;;;;;21.76;63.23;101897.44;5040229;27;123451;-70
2021/06/05 06:37:59;;;;;;;123.65;78.30;;;;;;;21.76;63.54;101901.97;5034946;27;114108;-70
2021/06/05 06:40:31;;;;;;;124.88;79.35;;;;;;;21.75;63.21;101905.63;5043583;27;113852;-70
2021/06/05 06:42:58;;;;;;;135.43;80.85;;;;;;;21.74;63.24;101909.31;5045946;27;124028;-70
2021/06/05 06:45:27;;;;;;;133.60;80.57;;;;;;;21.74;63.21;101909.31;5044054;27;123984;-70
2021/06/05 06:47:55;;;;;;;132.57;79.63;;;;;;;21.73;63.39;101912.97;5047071;27;114284;-69
2021/06/05 06:50:25;;;;;;;124.05;76.88;;;;;;;21.72;63.20;101916.69;5061129;22;114195;-63
2021/06/05 06:52:53;;;;;;;126.32;74.95;;;;;;;21.73;63.14;101918.38;5043891;27;124355;-63
2021/06/05 06:55:23;;;;;;;119.35;74.72;;;;;;;21.74;63.28;101920.13;5045497;27;123616;-63
2021/06/05 06:57:51;;;;;;;117.07;72.30;;;;;;;21.76;63.19;101923.56;5047046;27;115060;-63
2021/06/05 07:00:24;;;;;;;119.72;71.28;;;;;;;21.75;63.03;101927.22;5048073;27;115250;-63
2021/06/05 07:02:51;;;;;;;118.93;70.97;;;;;;;21.73;63.01;101935.41;5048268;27;125175;-63
2021/06/05 07:05:18;;;;;;;125.32;70.07;;;;;;;21.72;62.70;101940.94;5050906;27;125300;-63
2021/06/05 07:07:46;;;;;;;129.82;70.97;;;;;;;21.69;62.69;101944.72;5048078;27;113539;-63
2021/06/05 07:10:15;;;;;;;121.50;71.72;;;;;;;21.65;62.75;101937.84;5042426;27;114113;-63
2021/06/05 07:12:42;;;;;;;121.85;70.88;;;;;;;21.64;62.84;101943.34;5047230;27;123852;-63
2021/06/05 07:15:09;;;;;;;124.53;69.85;;;;;;;21.63;62.71;101939.78;5048318;27;123837;-63
2021/06/05 07:17:47;;;;;;;122.40;70.15;;;;;;;21.64;63.14;101951.41;5048352;27;114201;-63
2021/06/05 07:20:15;;;;;;;124.43;72.20;;;;;;;21.64;62.83;101940.63;5043023;27;112985;-64
2021/06/05 07:22:43;;;;;;;123.88;70.20;;;;;;;21.63;62.89;101941.63;5042155;27;124966;-64
2021/06/05 07:25:11;;;;;;;132.38;72.10;;;;;;;21.64;62.86;101940.63;5045241;27;123577;-64
2021/06/05 07:27:38;;;;;;;129.20;73.05;;;;;;;21.63;63.00;101933.53;5043788;27;114342;-63
2021/06/05 07:30:06;;;;;;;128.05;73.28;;;;;;;21.66;63.26;101944.06;5046907;27;114698;-63
2021/06/05 07:32:33;;;;;;;123.05;72.75;;;;;;;21.68;63.16;101943.00;5044649;27;123881;-63
2021/06/05 07:35:01;;;;;;;120.90;70.57;;;;;;;21.72;63.13;101940.94;5047067;27;123773;-63
2021/06/05 07:37:28;;;;;;;120.72;70.18;;;;;;;21.75;63.08;101938.00;5049336;27;114207;-63
2021/06/05 07:39:55;;;;;;;122.55;69.00;;;;;;;21.80;63.33;101952.00;5044000;27;113982;-63
2021/06/05 07:42:22;;;;;;;114.95;66.20;;;;;;;21.85;63.23;101939.03;5035669;27;124722;-63
2021/06/05 07:44:50;;;;;;;103.45;63.35;;;;;;;21.90;63.25;101947.63;5035968;27;123817;-63
2021/06/05 07:47:17;;;;;;;101.53;59.90;;;;;;;21.96;63.19;101947.19;5042612;27;115320;-63
2021/06/05 07:49:44;;;;;;;100.03;60.40;;;;;;;22.02;62.90;101939.56;5042144;27;114998;-63
2021/06/05 07:52:12;;;;;;;96.22;58.20;;;;;;;22.07;62.88;101948.19;5040218;27;123828;-63
2021/06/05 07:54:40;;;;;;;95.60;57.78;;;;;;;22.13;62.78;101936.91;5041271;27;124632;-63
2021/06/05 07:57:08;;;;;;;106.13;59.13;;;;;;;22.18;62.84;101945.53;5044324;27;114770;-63
2021/06/05 07:59:35;;;;;;;96.25;57.75;;;;;;;22.23;62.64;101943.34;5038810;27;114354;-63
2021/06/05 08:02:02;;;;;;;98.60;57.35;;;;;;;22.26;62.57;101937.72;5040011;27;124129;-63
2021/06/05 08:04:30;;;;;;;90.97;54.72;;;;;;;22.30;62.54;101944.63;5041902;27;124629;-63
2021/06/05 08:06:57;;;;;;;86.93;52.72;;;;;;;22.35;62.12;101942.41;5045732;27;114374;-63
2021/06/05 08:09:24;;;;;;;88.50;52.88;;;;;;;22.38;62.18;101941.34;5044103;27;114315;-63
2021/06/05 08:11:51;;;;;;;84.88;54.05;;;;;;;22.39;62.24;101937.63;5052031;27;124571;-63
2021/06/05 08:14:18;;;;;;;80.85;51.63;;;;;;;22.44;62.01;101950.78;5046711;27;124241;-63
2021/06/05 08:16:46;;;;;;;72.47;49.08;;;;;;;22.50;61.98;101953.00;5052024;27;114333;-63
2021/06/05 08:19:14;;;;;;;73.15;47.55;;;;;;;22.58;62.02;101947.84;5049699;27;114067;-63
2021/06/05 08:21:43;;;;;;;71.45;45.85;;;;;;;22.65;61.61;101948.25;5051601;27;124111;-63
2021/06/05 08:24:11;;;;;;;64.13;42.75;;;;;;;22.66;61.40;101945.44;5050131;27;124696;-63
2021/06/05 08:26:39;;;;;;;65.85;42.72;;;;;;;22.67;61.26;101941.72;5034447;27;114231;-63
2021/06/05 08:29:07;;;;;;;59.15;39.35;;;;;;;22.69;61.23;101942.47;5042274;27;114338;-63
2021/06/05 08:31:35;;;;;;;59.45;39.53;;;;;;;22.73;60.90;101943.97;5040076;27;124030;-63
2021/06/05 08:34:03;;;;;;;55.15;37.80;;;;;;;22.78;60.90;101942.75;5033279;27;124025;-63
2021/06/05 08:36:31;;;;;;;53.78;38.10;;;;;;;22.81;61.28;101937.06;5036104;27;115961;-63
2021/06/05 08:38:59;;;;;;;53.78;37.55;;;;;;;22.86;61.26;101929.47;5050931;27;115421;-63
2021/06/05 08:41:26;;;;;;;48.22;35.17;;;;;;;22.92;61.06;101937.06;5052257;27;124700;-63
2021/06/05 08:44:04;;;;;;;48.75;36.35;;;;;;;22.96;61.16;101935.84;5052991;27;123581;-63
2021/06/05 08:46:37;;;;;;;48.13;34.95;;;;;;;23.01;61.10;101933.63;5052630;27;114601;-63
2021/06/05 08:49:11;;;;;;;47.05;35.03;;;;;;;23.07;60.78;101938.56;5039451;27;114725;-63
2021/06/05 08:51:45;;;;;;;51.28;34.58;;;;;;;23.13;60.34;101943.50;5053374;27;123965;-63
2021/06/05 08:54:32;;;;;;;47.60;34.63;;;;;;;23.10;60.08;101943.75;5037984;27;123746;-63
2021/06/05 08:57:27;;;;;;;47.55;34.60;;;;;;;23.08;59.97;101945.72;5052619;27;114830;-64
2021/06/05 08:59:59;;;;;;;50.05;34.35;;;;;;;23.05;59.99;101945.94;5051490;27;113831;-64
2021/06/05 09:02:27;;;;;;;47.45;35.03;;;;;;;23.05;59.94;101945.94;5034887;27;124195;-64
2021/06/05 09:04:56;;;;;;;48.75;35.63;;;;;;;23.02;59.98;101951.59;5043157;27;123846;-63
2021/06/05 09:07:25;;;;;;;55.60;38.20;;;;;;;23.00;60.04;101958.97;5041951;27;115024;-63
2021/06/05 09:09:53;;;;;;;57.75;37.85;;;;;;;22.99;60.09;101957.22;5040584;27;113939;-63
2021/06/05 09:12:21;;;;;;;56.85;36.40;;;;;;;22.98;59.92;101955.53;5051928;27;123154;-63
2021/06/05 09:14:55;;;;;;;58.65;36.85;;;;;;;22.95;59.96;101958.47;5050759;27;123947;-63
2021/06/05 09:17:36;;;;;;;53.83;36.80;;;;;;;22.93;60.15;101960.41;5051581;27;114308;-64
2021/06/05 09:20:09;;;;;;;55.15;35.47;;;;;;;22.92;60.02;101962.28;5047298;27;113979;-64
2021/06/05 09:22:44;;;;;;;50.67;36.05;;;;;;;22.89;59.97;101961.66;5052886;27;124102;-64
2021/06/05 09:25:33;;;;;;;50.72;34.85;;;;;;;22.86;60.03;101967.28;5051293;27;123710;-64
2021/06/05 09:28:22;;;;;;;47.15;33.05;;;;;;;22.84;59.82;101963.84;5038055;27;115535;-64
2021/06/05 09:30:56;;;;;;;44.15;31.15;;;;;;;22.79;59.76;101971.44;5051946;27;115117;-64
2021/06/05 09:33:30;;;;;;;40.78;29.92;;;;;;;22.72;59.80;101971.94;5046686;27;124087;-64
2021/06/05 09:36:21;;;;;;;40.47;30.20;;;;;;;22.65;59.86;101970.69;5047317;27;123123;-64
2021/06/05 09:39:00;;;;;;;35.08;27.02;;;;;;;22.62;60.04;101965.56;5033926;27;115016;-63
2021/06/05 09:41:34;;;;;;;36.28;27.13;;;;;;;22.59;60.04;101971.19;5034070;27;114574;-63
2021/06/05 09:44:12;;;;;;;34.80;26.33;;;;;;;22.58;60.20;101969.47;5042814;27;123147;-64
2021/06/05 09:46:52;;;;;;;33.13;23.92;;;;;;;22.58;60.25;101974.84;5045695;27;124440;-64
2021/06/05 09:49:28;;;;;;;30.90;23.98;;;;;;;22.60;60.44;101967.50;5032481;27;113997;-63
2021/06/05 09:52:06;;;;;;;27.10;21.60;;;;;;;22.61;60.27;101969.22;5032962;27;114079;-63
2021/06/05 09:54:43;;;;;;;25.25;21.02;;;;;;;22.60;60.31;101978.28;5038584;27;124375;-63
2021/06/05 09:57:24;;;;;;;24.83;19.55;;;;;;;22.60;60.24;101978.28;5031222;27;122844;-64
2021/06/05 10:00:15;;;;;;;20.30;17.02;;;;;;;22.56;60.34;101976.81;5034457;27;114825;-64
2021/06/05 10:02:46;;;;;;;23.33;17.67;;;;;;;22.56;60.30;101976.81;5033403;27;114408;-64
2021/06/05 10:05:34;;;;;;;18.25;16.27;;;;;;;22.54;60.17;101973.38;5047901;27;124199;-64
2021/06/05 10:08:26;;;;;;;21.08;17.65;;;;;;;22.52;60.14;101976.19;5035856;27;123548;-64
2021/06/05 10:11:15;;;;;;;19.80;16.27;;;;;;;22.51;60.20;101979.03;5046836;27;115006;-64
2021/06/05 10:13:47;;;;;;;17.75;15.23;;;;;;;22.50;60.23;101982.72;5034091;27;114311;-64
2021/06/05 10:16:21;;;;;;;16.98;15.18;;;;;;;22.47;60.41;101983.81;5032715;27;126000;-64
2021/06/05 10:18:57;;;;;;;18.60;14.68;;;;;;;22.50;60.29;101982.72;5042079;27;124167;-64
2021/06/05 10:21:35;;;;;;;17.55;14.93;;;;;;;22.52;60.33;101983.44;5043212;27;115299;-64
2021/06/05 10:24:10;;;;;;;16.90;15.18;;;;;;;22.53;60.43;101983.34;5042907;27;115083;-64
2021/06/05 10:26:43;;;;;;;17.73;15.82;;;;;;;22.57;60.29;101992.06;5046632;27;124113;-64
2021/06/05 10:29:34;;;;;;;18.90;14.93;;;;;;;22.58;60.34;101993.75;5042598;27;123988;-64
2021/06/05 10:32:07;;;;;;;17.33;15.60;;;;;;;22.58;60.38;101996.47;5050413;27;113428;-64
2021/06/05 10:35:03;;;;;;;17.65;15.73;;;;;;;22.59;60.29;101992.78;5034173;27;114098;-64
2021/06/05 10:37:35;;;;;;;30.58;22.88;;;;;;;22.61;60.21;101996.22;5029454;27;124325;-64
2021/06/05 10:40:25;;;;;;;35.83;27.17;;;;;;;22.60;60.32;101993.66;5039956;27;123928;-64
2021/06/05 10:42:54;;;;;;;39.53;29.80;;;;;;;22.57;60.25;102010.97;5039767;27;114622;-64
2021/06/05 10:45:39;;;;;;;45.00;31.52;;;;;;;22.52;60.46;102002.34;5044541;27;114951;-63
2021/06/05 10:48:25;;;;;;;41.83;31.73;;;;;;;22.49;60.28;102018.78;5041195;27;124798;-64
2021/06/05 10:51:01;;;;;;;;;;;;;;;22.42;60.03;102006.75;5040340;27;123327;-63
2021/06/05 10:53:53;;;;;;;;;;;;;;;22.41;60.00;102015.81;5042656;27;114627;-64
2021/06/05 10:56:52;;;;;;;54.42;37.80;;;;;;;22.38;60.00;102016.03;5039079;27;96732;-64
2021/06/05 10:59:58;;;;;;;59.30;41.28;;;;;;;22.30;60.17;102014.81;5031861;27;126040;-64
2021/06/05 11:02:34;;;;;;;62.90;41.30;;;;;;;22.24;60.21;102009.81;5040105;27;123915;-63
2021/06/05 11:05:31;;;;;;;63.92;41.40;;;;;;;22.17;60.39;102008.59;5046195;27;115186;-63
2021/06/05 11:08:08;;;;;;;59.63;41.17;;;;;;;22.13;60.68;102007.06;5043647;27;114013;-64
2021/06/05 11:11:06;;;;;;;62.83;38.67;;;;;;;22.11;60.76;102004.53;5036297;27;124701;-64
2021/06/05 11:13:36;;;;;;;61.40;40.40;;;;;;;22.14;60.78;102003.41;5045482;27;125582;-64
2021/06/05 11:16:03;;;;;;;59.80;38.60;;;;;;;22.13;60.88;102002.56;5032151;27;115314;-64
2021/06/05 11:18:32;;;;;;;55.97;38.70;;;;;;;22.11;61.13;101998.25;5041399;27;115225;-64
2021/06/05 11:21:19;;;;;;;58.70;37.85;;;;;;;22.13;61.22;102012.47;5033704;27;124659;-64